Time;durP1;ratioP1;P1;durP2;ratioP2;P2;SDS_P1;SDS_P2;PMS_P1;PMS_P2;Temp;Humidity;BMP_temperature;BMP_pressure;BME280_temperature;BME280_humidity;BME280_pressure;Samples;Min_cycle;Max_cycle;Signal;HPM_P1;HPM_P2
2021/07/26 00:01:51;;;;;;;9.45;5.70;;;20.90;91.40;;;;;;5013610;28;20037;-84
2021/07/26 00:04:17;;;;;;;9.68;5.50;;;20.90;91.40;;;;;;5029629;28;20025;-84
2021/07/26 00:06:43;;;;;;;7.43;4.82;;;20.90;91.40;;;;;;5026567;28;20029;-84
2021/07/26 00:09:09;;;;;;;8.27;5.00;;;20.90;91.40;;;;;;5045831;28;20028;-83
2021/07/26 00:11:35;;;;;;;7.88;4.68;;;20.90;91.40;;;;;;5039194;28;20034;-80
2021/07/26 00:14:01;;;;;;;9.77;4.95;;;20.80;91.40;;;;;;5014530;28;20080;-84
2021/07/26 00:16:26;;;;;;;7.72;4.65;;;20.80;91.40;;;;;;5014212;28;20026;-84
2021/07/26 00:18:52;;;;;;;8.60;4.75;;;20.80;91.40;;;;;;5013225;28;20033;-85
2021/07/26 00:21:18;;;;;;;8.80;4.97;;;20.80;91.40;;;;;;5012809;28;20386;-84
2021/07/26 00:23:44;;;;;;;8.90;5.55;;;20.80;91.50;;;;;;5013264;28;20026;-84
2021/07/26 00:26:09;;;;;;;7.15;4.50;;;20.80;91.50;;;;;;5013952;28;20022;-84
2021/07/26 00:28:35;;;;;;;8.70;4.95;;;20.70;91.50;;;;;;5029098;28;20062;-84
2021/07/26 00:31:01;;;;;;;8.52;4.95;;;20.70;91.50;;;;;;5013761;28;20034;-84
2021/07/26 00:34:07;;;;;;;6.90;4.30;;;20.70;91.50;;;;;;5013818;28;20048;-84
2021/07/26 00:36:41;;;;;;;7.93;4.93;;;20.70;91.50;;;;;;5012101;28;20441;-84
2021/07/26 00:39:08;;;;;;;6.95;4.80;;;20.60;91.50;;;;;;5029005;28;20076;-84
2021/07/26 00:41:35;;;;;;;8.15;4.53;;;20.60;91.60;;;;;;5013778;28;20026;-85
2021/07/26 00:44:01;;;;;;;9.80;4.85;;;20.60;91.60;;;;;;5013001;28;20027;-84
2021/07/26 00:46:26;;;;;;;8.43;4.78;;;20.60;91.60;;;;;;5013657;28;20034;-85
2021/07/26 00:48:53;;;;;;;8.57;4.93;;;20.50;91.60;;;;;;5027994;28;20125;-83
2021/07/26 00:51:19;;;;;;;7.88;5.07;;;20.50;91.70;;;;;;5028435;28;20030;-84
2021/07/26 00:53:46;;;;;;;8.00;5.13;;;20.50;91.70;;;;;;5027927;28;20026;-83
2021/07/26 00:56:13;;;;;;;7.70;4.60;;;20.50;91.70;;;;;;5012359;28;20021;-83
2021/07/26 00:58:40;;;;;;;7.82;4.80;;;20.40;91.70;;;;;;5012466;28;20089;-82
2021/07/26 01:01:06;;;;;;;8.75;4.60;;;20.50;91.70;;;;;;5013110;28;20030;-83
2021/07/26 01:03:32;;;;;;;9.15;4.82;;;20.40;91.70;;;;;;5013293;28;20017;-84
2021/07/26 01:05:58;;;;;;;8.65;4.82;;;20.40;91.70;;;;;;5012014;28;20025;-84
2021/07/26 01:08:24;;;;;;;8.25;4.88;;;20.40;91.70;;;;;;5011838;28;20417;-83
2021/07/26 01:10:50;;;;;;;9.70;5.03;;;20.40;91.70;;;;;;5012565;28;20068;-84
2021/07/26 01:13:16;;;;;;;9.38;5.00;;;20.40;91.70;;;;;;5013514;28;20390;-84
2021/07/26 01:15:41;;;;;;;8.98;5.22;;;20.40;91.70;;;;;;5011549;28;20052;-83
2021/07/26 01:18:30;;;;;;;10.32;5.18;;;20.30;91.70;;;;;;5013385;28;20022;-84
2021/07/26 01:21:01;;;;;;;9.85;5.43;;;20.40;91.70;;;;;;5013062;28;20022;-83
2021/07/26 01:23:29;;;;;;;7.18;4.80;;;20.30;91.70;;;;;;5035812;28;20029;-83
2021/07/26 01:25:55;;;;;;;7.88;4.45;;;20.30;91.70;;;;;;5024065;28;20018;-84
2021/07/26 01:28:23;;;;;;;7.50;4.78;;;20.30;91.70;;;;;;5044660;28;20022;-83
2021/07/26 01:30:49;;;;;;;10.23;5.40;;;20.30;91.70;;;;;;5031053;28;20030;-83
2021/07/26 01:33:16;;;;;;;9.07;5.45;;;20.30;91.70;;;;;;5024950;28;20034;-84
2021/07/26 01:35:43;;;;;;;8.82;5.10;;;20.30;91.70;;;;;;5028333;28;20057;-83
2021/07/26 01:38:09;;;;;;;8.75;4.72;;;20.20;91.70;;;;;;5028523;28;20025;-84
2021/07/26 01:40:38;;;;;;;7.40;4.80;;;20.20;91.70;;;;;;5014335;28;20406;-85
2021/07/26 01:43:05;;;;;;;7.78;4.75;;;20.20;91.70;;;;;;5022806;28;20029;-85
2021/07/26 01:45:32;;;;;;;8.82;5.13;;;20.20;91.80;;;;;;5041735;28;20053;-85
2021/07/26 01:48:29;;;;;;;8.48;5.57;;;20.10;91.80;;;;;;5022584;28;20129;-84
2021/07/26 01:51:01;;;;;;;8.25;4.78;;;20.20;91.80;;;;;;5010792;28;20076;-85
2021/07/26 01:53:27;;;;;;;8.80;4.63;;;20.10;91.80;;;;;;5012691;28;20029;-84
2021/07/26 01:55:54;;;;;;;8.85;4.75;;;20.10;91.80;;;;;;5010601;28;20030;-84
2021/07/26 01:58:20;;;;;;;7.72;4.43;;;20.10;92.10;;;;;;5027165;28;20083;-84
2021/07/26 02:00:45;;;;;;;9.07;4.85;;;20.10;91.80;;;;;;5011939;28;20030;-84
2021/07/26 02:03:11;;;;;;;9.50;5.40;;;20.10;91.80;;;;;;5012687;28;20378;-84
2021/07/26 02:05:36;;;;;;;7.20;4.60;;;20.00;91.80;;;;;;5010919;28;20029;-84
2021/07/26 02:08:02;;;;;;;10.00;5.22;;;20.00;91.90;;;;;;5010486;28;20192;-84
2021/07/26 02:10:28;;;;;;;7.65;5.07;;;20.00;91.90;;;;;;5027439;28;20025;-85
2021/07/26 02:12:56;;;;;;;7.97;4.53;;;20.00;91.90;;;;;;5011493;28;20034;-83
2021/07/26 02:15:22;;;;;;;9.93;5.22;;;20.00;91.80;;;;;;5011000;28;20026;-85
2021/07/26 02:17:47;;;;;;;8.55;4.38;;;20.00;91.80;;;;;;5011584;28;20094;-83
2021/07/26 02:20:13;;;;;;;9.18;5.03;;;20.00;91.80;;;;;;5015634;28;20108;-83
2021/07/26 02:22:39;;;;;;;8.80;5.03;;;19.90;91.80;;;;;;5014415;28;20021;-83
2021/07/26 02:25:05;;;;;;;8.98;4.93;;;20.00;91.80;;;;;;5015402;28;20068;-83
2021/07/26 02:27:30;;;;;;;9.43;4.35;;;20.00;91.90;;;;;;5031053;28;20370;-83
2021/07/26 02:29:56;;;;;;;8.52;4.93;;;20.00;91.90;;;;;;5014836;28;20022;-84
2021/07/26 02:32:22;;;;;;;7.82;4.82;;;19.90;91.90;;;;;;5014511;28;20030;-83
2021/07/26 02:34:47;;;;;;;6.95;4.70;;;19.90;91.90;;;;;;5015178;28;20097;-84
2021/07/26 02:37:13;;;;;;;8.43;4.65;;;19.90;91.90;;;;;;5015735;28;20196;-83
2021/07/26 02:39:39;;;;;;;9.10;4.93;;;19.90;91.80;;;;;;5015508;28;20057;-84
2021/07/26 02:42:05;;;;;;;9.45;4.70;;;19.90;91.80;;;;;;5015693;28;20049;-84
2021/07/26 02:44:30;;;;;;;9.68;4.88;;;19.90;91.80;;;;;;5031286;28;20018;-84
2021/07/26 02:46:56;;;;;;;8.00;3.92;;;19.90;91.80;;;;;;5020825;28;20029;-84
2021/07/26 02:49:21;;;;;;;8.43;4.60;;;19.80;91.80;;;;;;5015951;28;20467;-84
2021/07/26 02:51:47;;;;;;;7.90;4.75;;;19.90;91.90;;;;;;5013368;28;20125;-82
2021/07/26 02:54:13;;;;;;;7.93;4.50;;;19.80;91.90;;;;;;5015665;28;20090;-83
2021/07/26 02:56:38;;;;;;;8.57;4.97;;;19.80;91.90;;;;;;5013892;28;20022;-83
2021/07/26 02:59:04;;;;;;;8.45;4.80;;;19.80;91.90;;;;;;5013423;28;20032;-84
2021/07/26 03:01:32;;;;;;;7.88;4.38;;;19.80;91.90;;;;;;5030689;28;20110;-84
2021/07/26 03:03:57;;;;;;;8.73;4.97;;;19.80;91.90;;;;;;5014999;28;20014;-83
2021/07/26 03:06:23;;;;;;;8.48;4.68;;;19.80;91.90;;;;;;5013925;28;20026;-84
2021/07/26 03:08:49;;;;;;;8.52;4.88;;;19.80;91.90;;;;;;5013320;28;20532;-83
2021/07/26 03:11:15;;;;;;;9.48;4.93;;;19.80;91.90;;;;;;5014840;28;20064;-83
2021/07/26 03:13:41;;;;;;;7.43;4.82;;;19.80;91.90;;;;;;5030360;28;20080;-84
2021/07/26 03:16:09;;;;;;;8.95;4.63;;;19.80;91.90;;;;;;5029550;28;20072;-84
2021/07/26 03:18:35;;;;;;;7.60;4.45;;;19.80;91.90;;;;;;5014063;28;20378;-84
2021/07/26 03:21:02;;;;;;;8.27;4.63;;;19.80;91.90;;;;;;5014387;28;20474;-84
2021/07/26 03:23:27;;;;;;;10.23;4.60;;;19.80;91.90;;;;;;5013966;28;20482;-84
2021/07/26 03:25:53;;;;;;;8.88;4.72;;;19.80;91.90;;;;;;5014480;28;20058;-84
2021/07/26 03:28:19;;;;;;;9.10;4.80;;;19.80;91.90;;;;;;5016158;28;20026;-84
2021/07/26 03:30:45;;;;;;;8.98;5.05;;;19.80;91.90;;;;;;5029587;28;20452;-84
2021/07/26 03:33:11;;;;;;;7.93;4.43;;;19.80;91.90;;;;;;5029340;28;20030;-84
2021/07/26 03:35:38;;;;;;;7.57;4.68;;;19.80;91.90;;;;;;5014834;28;20030;-83
2021/07/26 03:38:05;;;;;;;7.15;4.13;;;19.70;91.80;;;;;;5029347;28;20022;-83
2021/07/26 03:40:35;;;;;;;8.07;4.82;;;19.80;91.90;;;;;;5013364;28;20026;-83
2021/07/26 03:43:01;;;;;;;7.82;4.53;;;19.70;91.90;;;;;;5013938;28;20014;-83
2021/07/26 03:45:28;;;;;;;7.93;4.80;;;19.70;91.90;;;;;;5014732;28;20029;-83
2021/07/26 03:47:56;;;;;;;6.30;4.40;;;19.70;91.90;;;;;;5029147;28;20038;-82
2021/07/26 03:50:22;;;;;;;8.30;4.95;;;19.60;91.90;;;;;;5014691;28;20048;-83
2021/07/26 03:52:54;;;;;;;6.88;4.00;;;19.60;92.00;;;;;;5029375;28;20022;-83
2021/07/26 03:55:25;;;;;;;7.95;4.70;;;19.60;92.00;;;;;;5014541;28;20098;-82
2021/07/26 03:57:51;;;;;;;;;;;19.60;92.00;;;;;;5029720;28;20049;-83
2021/07/26 04:00:18;;;;;;;7.78;4.35;;;19.60;91.90;;;;;;5031593;28;20411;-83
2021/07/26 04:02:49;;;;;;;7.88;4.63;;;19.60;91.90;;;;;;5022067;28;20497;-83
2021/07/26 04:05:21;;;;;;;6.03;4.05;;;19.60;91.90;;;;;;5015940;28;20018;-83
2021/07/26 04:07:48;;;;;;;9.82;4.47;;;19.50;92.00;;;;;;5040034;28;20117;-82
2021/07/26 04:10:14;;;;;;;7.85;4.20;;;19.50;92.00;;;;;;5024536;28;20100;-83
2021/07/26 04:12:44;;;;;;;10.43;4.45;;;19.50;92.00;;;;;;5013015;28;20029;-83
2021/07/26 04:15:10;;;;;;;9.73;4.70;;;19.50;92.00;;;;;;5028702;28;20018;-83
2021/07/26 04:17:37;;;;;;;9.00;4.32;;;19.50;92.10;;;;;;5012528;28;20465;-83
2021/07/26 04:20:05;;;;;;;9.30;5.13;;;19.50;92.10;;;;;;5022421;28;20389;-83
2021/07/26 04:22:30;;;;;;;7.25;4.13;;;19.50;92.10;;;;;;5029335;28;20473;-84
2021/07/26 04:24:57;;;;;;;7.97;4.38;;;19.50;92.10;;;;;;5026136;28;20052;-84
2021/07/26 04:27:25;;;;;;;9.35;5.25;;;19.50;92.10;;;;;;5032393;28;20021;-83
2021/07/26 04:29:50;;;;;;;8.43;4.93;;;19.50;92.10;;;;;;5033576;28;20026;-84
2021/07/26 04:32:16;;;;;;;10.55;4.72;;;19.50;92.10;;;;;;5031459;28;20449;-84
2021/07/26 04:34:41;;;;;;;7.45;4.10;;;19.50;92.20;;;;;;5032071;28;20022;-84
2021/07/26 04:37:07;;;;;;;8.27;4.15;;;19.50;92.20;;;;;;5031540;28;20017;-83
2021/07/26 04:39:33;;;;;;;8.48;4.00;;;19.50;92.20;;;;;;5023293;28;20497;-84
2021/07/26 04:41:59;;;;;;;6.93;4.07;;;19.50;92.10;;;;;;5012289;28;20113;-83
2021/07/26 04:44:24;;;;;;;7.43;3.47;;;19.50;92.10;;;;;;5013790;28;20097;-83
2021/07/26 04:46:50;;;;;;;7.47;4.05;;;19.50;92.10;;;;;;5027602;28;20125;-80
2021/07/26 04:49:15;;;;;;;7.60;3.05;;;19.50;92.10;;;;;;5010925;28;20029;-84
2021/07/26 04:51:41;;;;;;;9.23;3.70;;;19.50;92.10;;;;;;5026560;28;20347;-80
2021/07/26 04:54:07;;;;;;;5.72;3.03;;;19.50;92.10;;;;;;5025710;28;20484;-78
2021/07/26 04:56:32;;;;;;;7.88;3.05;;;19.60;92.30;;;;;;5011884;28;20022;-81
2021/07/26 04:58:58;;;;;;;7.07;3.30;;;19.60;92.10;;;;;;5025651;28;20398;-81
2021/07/26 05:01:24;;;;;;;6.05;3.40;;;19.50;92.00;;;;;;5009163;28;20029;-82
2021/07/26 05:03:49;;;;;;;5.85;3.10;;;19.60;92.00;;;;;;5011163;28;20092;-81
2021/07/26 05:06:15;;;;;;;5.88;3.22;;;19.60;92.00;;;;;;5010418;28;20018;-82
2021/07/26 05:08:40;;;;;;;4.85;2.63;;;19.60;92.00;;;;;;5026057;28;20105;-82
2021/07/26 05:11:06;;;;;;;6.80;3.60;;;19.60;91.90;;;;;;5025347;28;20529;-80
2021/07/26 05:13:32;;;;;;;8.02;3.58;;;19.60;92.00;;;;;;5010008;28;20030;-83
2021/07/26 05:15:57;;;;;;;5.38;3.10;;;19.60;92.00;;;;;;5025407;28;20057;-85
2021/07/26 05:18:23;;;;;;;5.47;3.15;;;19.60;92.00;;;;;;5026734;28;20067;-81
2021/07/26 05:20:49;;;;;;;7.75;3.10;;;19.60;92.10;;;;;;5026320;28;20481;-80
2021/07/26 05:23:16;;;;;;;6.38;3.42;;;19.60;92.10;;;;;;5010417;28;20144;-81
2021/07/26 05:25:43;;;;;;;4.60;2.90;;;19.60;92.20;;;;;;5025829;28;20033;-81
2021/07/26 05:28:09;;;;;;;6.32;2.83;;;19.60;92.20;;;;;;5010030;28;20018;-83
2021/07/26 05:30:34;;;;;;;4.93;2.63;;;19.60;92.20;;;;;;5010990;28;20480;-82
2021/07/26 05:33:00;;;;;;;5.90;3.17;;;19.60;92.10;;;;;;5024985;28;20026;-83
2021/07/26 05:35:26;;;;;;;5.30;3.30;;;19.60;92.20;;;;;;5010786;28;20025;-82
2021/07/26 05:37:51;;;;;;;6.60;3.25;;;19.60;92.10;;;;;;5026294;28;20341;-81
2021/07/26 05:40:17;;;;;;;5.72;2.85;;;19.60;92.10;;;;;;5027033;28;20048;-81
2021/07/26 05:42:43;;;;;;;5.28;3.10;;;19.60;92.10;;;;;;5027456;28;20025;-81
2021/07/26 05:45:09;;;;;;;6.55;3.22;;;19.60;92.20;;;;;;5027125;28;20037;-81
2021/07/26 05:47:34;;;;;;;5.88;3.15;;;19.60;92.20;;;;;;5027551;28;20112;-82
2021/07/26 05:50:00;;;;;;;6.30;2.90;;;19.60;92.20;;;;;;5012089;28;20057;-80
2021/07/26 05:52:26;;;;;;;5.72;3.17;;;19.60;92.20;;;;;;5028716;28;20017;-81
2021/07/26 05:54:52;;;;;;;6.95;3.75;;;19.60;92.20;;;;;;5018991;28;20025;-81
2021/07/26 05:57:19;;;;;;;5.55;2.90;;;19.60;92.20;;;;;;5033030;28;20038;-83
2021/07/26 05:59:45;;;;;;;5.50;3.13;;;19.70;92.20;;;;;;5035180;28;20069;-82
2021/07/26 06:02:11;;;;;;;4.90;2.97;;;19.70;92.20;;;;;;5018162;28;20058;-81
2021/07/26 06:04:36;;;;;;;7.00;3.63;;;19.70;92.20;;;;;;5033926;28;20029;-82
2021/07/26 06:07:02;;;;;;;5.82;3.25;;;19.70;92.10;;;;;;5033090;28;20024;-81
2021/07/26 06:09:28;;;;;;;7.18;3.55;;;19.70;92.10;;;;;;5018590;28;20018;-81
2021/07/26 06:11:54;;;;;;;7.63;3.50;;;19.70;92.10;;;;;;5018593;28;20115;-81
2021/07/26 06:14:21;;;;;;;7.47;3.42;;;19.80;92.20;;;;;;5017956;28;20472;-81
2021/07/26 06:16:48;;;;;;;9.20;3.47;;;19.80;92.10;;;;;;5033787;28;20018;-81
2021/07/26 06:19:15;;;;;;;7.93;3.33;;;19.70;92.10;;;;;;5033076;28;20014;-80
2021/07/26 06:21:49;;;;;;;6.88;3.30;;;19.80;92.10;;;;;;5033719;28;20068;-80
2021/07/26 06:24:17;;;;;;;5.65;2.90;;;19.80;92.20;;;;;;5033040;28;20477;-80
2021/07/26 06:26:43;;;;;;;7.70;3.00;;;19.80;92.10;;;;;;5033773;28;20112;-80
2021/07/26 06:29:09;;;;;;;7.25;3.88;;;19.80;92.10;;;;;;5016663;28;20029;-83
2021/07/26 06:31:35;;;;;;;7.03;3.22;;;19.90;92.10;;;;;;5033548;28;20033;-80
2021/07/26 06:34:03;;;;;;;6.13;3.80;;;19.90;92.00;;;;;;5034730;28;20181;-81
2021/07/26 06:36:29;;;;;;;7.32;4.28;;;19.90;92.00;;;;;;5034480;28;20022;-80
2021/07/26 06:38:55;;;;;;;7.05;3.70;;;19.90;91.90;;;;;;5033861;28;20022;-83
2021/07/26 06:41:21;;;;;;;6.55;3.13;;;20.00;91.90;;;;;;5033090;28;20022;-81
2021/07/26 06:43:47;;;;;;;5.38;3.05;;;20.00;91.90;;;;;;5033420;28;20022;-81
2021/07/26 06:46:14;;;;;;;6.70;3.40;;;20.00;91.80;;;;;;5032828;28;20056;-81
2021/07/26 06:48:40;;;;;;;7.55;3.90;;;20.00;91.70;;;;;;5018306;28;20014;-81
2021/07/26 06:51:05;;;;;;;8.60;4.35;;;20.10;91.80;;;;;;5017338;28;20021;-80
2021/07/26 06:53:34;;;;;;;8.77;3.95;;;20.10;91.60;;;;;;5033715;28;20032;-82
2021/07/26 06:56:07;;;;;;;8.73;4.07;;;20.20;91.50;;;;;;5033349;28;20028;-81
2021/07/26 06:58:38;;;;;;;7.82;3.95;;;20.20;91.30;;;;;;5033222;28;20701;-81
2021/07/26 07:01:10;;;;;;;6.22;3.30;;;20.30;91.20;;;;;;5018179;28;20026;-81
2021/07/26 07:03:36;;;;;;;8.23;4.57;;;20.30;91.10;;;;;;5017805;28;20009;-81
2021/07/26 07:06:06;;;;;;;8.40;3.95;;;20.30;91.00;;;;;;5029440;28;20021;-81
2021/07/26 07:08:32;;;;;;;7.30;3.83;;;20.40;90.90;;;;;;5030053;28;20080;-81
2021/07/26 07:11:03;;;;;;;7.70;4.43;;;20.40;90.80;;;;;;5014847;28;20442;-81
2021/07/26 07:13:29;;;;;;;7.47;3.63;;;20.40;90.80;;;;;;5029383;28;20021;-82
2021/07/26 07:15:54;;;;;;;10.50;4.55;;;20.40;90.70;;;;;;5030098;28;20084;-81
2021/07/26 07:18:20;;;;;;;6.75;4.05;;;20.40;90.60;;;;;;5029336;28;20117;-81
2021/07/26 07:20:45;;;;;;;6.88;3.95;;;20.40;90.60;;;;;;5014374;28;20033;-81
2021/07/26 07:23:11;;;;;;;9.25;4.47;;;20.50;90.60;;;;;;5013709;28;20014;-81
2021/07/26 07:25:36;;;;;;;7.63;4.60;;;20.50;90.60;;;;;;5029774;28;20022;-81
2021/07/26 07:28:02;;;;;;;7.03;4.10;;;20.50;90.60;;;;;;5029792;28;20029;-81
2021/07/26 07:30:28;;;;;;;7.35;4.35;;;20.50;90.60;;;;;;5029034;28;20434;-81
2021/07/26 07:32:53;;;;;;;9.43;5.30;;;20.60;90.50;;;;;;5029495;28;20065;-81
2021/07/26 07:35:20;;;;;;;9.05;4.55;;;20.70;90.40;;;;;;5013811;28;20049;-81
2021/07/26 07:37:45;;;;;;;10.02;5.75;;;20.70;90.40;;;;;;5014469;28;20018;-81
2021/07/26 07:40:12;;;;;;;7.20;4.07;;;20.80;90.20;;;;;;5028873;28;20284;-81
2021/07/26 07:42:37;;;;;;;8.10;4.97;;;20.80;90.20;;;;;;5014544;28;20018;-81
2021/07/26 07:45:03;;;;;;;11.38;4.80;;;20.90;90.10;;;;;;5029153;28;20550;-81
2021/07/26 07:47:29;;;;;;;7.28;4.57;;;20.90;90.00;;;;;;5013677;28;20068;-81
2021/07/26 07:49:54;;;;;;;8.30;5.20;;;21.00;90.00;;;;;;5014208;28;20030;-81
2021/07/26 07:52:20;;;;;;;9.43;4.85;;;21.10;89.90;;;;;;5029050;28;20033;-82
2021/07/26 07:54:46;;;;;;;9.52;5.13;;;21.10;89.80;;;;;;5031943;28;20405;-82
2021/07/26 07:57:12;;;;;;;7.22;4.43;;;21.20;89.50;;;;;;5013106;28;20045;-81
2021/07/26 07:59:39;;;;;;;8.48;4.15;;;21.20;89.30;;;;;;5029170;28;20118;-81
2021/07/26 08:02:07;;;;;;;8.82;5.00;;;21.30;89.00;;;;;;5029104;28;20029;-81
2021/07/26 08:04:35;;;;;;;8.20;5.13;;;21.40;88.80;;;;;;5028440;28;20014;-82
2021/07/26 08:07:01;;;;;;;11.02;6.07;;;21.40;88.50;;;;;;5028981;28;20029;-82
2021/07/26 08:09:27;;;;;;;9.10;5.38;;;21.50;88.30;;;;;;5028361;28;20369;-82
2021/07/26 08:11:52;;;;;;;8.13;4.70;;;21.60;88.10;;;;;;5028817;28;20026;-82
2021/07/26 08:14:18;;;;;;;8.98;4.80;;;21.60;87.80;;;;;;5013059;28;20018;-82
2021/07/26 08:16:44;;;;;;;7.78;4.93;;;21.70;87.60;;;;;;5027730;28;20084;-82
2021/07/26 08:19:09;;;;;;;7.18;4.40;;;21.80;87.30;;;;;;5014114;28;20030;-80
2021/07/26 08:21:35;;;;;;;7.38;4.35;;;21.80;87.20;;;;;;5014602;28;20448;-81
2021/07/26 08:24:02;;;;;;;8.48;4.63;;;21.80;87.10;;;;;;5029078;28;20018;-82
2021/07/26 08:26:28;;;;;;;9.88;5.35;;;21.80;87.20;;;;;;5013093;28;20043;-82
2021/07/26 08:28:54;;;;;;;7.47;4.72;;;21.80;87.20;;;;;;5013534;28;20516;-82
2021/07/26 08:31:19;;;;;;;11.63;5.40;;;21.80;87.10;;;;;;5027989;28;20022;-82
2021/07/26 08:33:45;;;;;;;9.30;4.85;;;21.80;86.80;;;;;;5028845;28;20454;-82
2021/07/26 08:36:11;;;;;;;9.15;4.57;;;21.70;86.30;;;;;;5028122;28;20037;-79
2021/07/26 08:38:36;;;;;;;7.80;4.30;;;21.70;86.30;;;;;;5028680;28;20018;-82
2021/07/26 08:41:02;;;;;;;6.38;3.65;;;21.70;86.40;;;;;;5013433;28;20097;-82
2021/07/26 08:43:28;;;;;;;8.80;4.38;;;21.80;86.10;;;;;;5012836;28;20056;-81
2021/07/26 08:45:54;;;;;;;4.78;2.90;;;21.80;85.90;;;;;;5013680;28;20025;-82
2021/07/26 08:48:24;;;;;;;8.32;4.35;;;21.90;85.70;;;;;;5027815;28;20084;-82
2021/07/26 08:50:56;;;;;;;8.38;5.10;;;21.90;85.30;;;;;;5013771;28;20080;-82
2021/07/26 08:53:24;;;;;;;7.53;4.40;;;21.90;85.10;;;;;;5012639;28;20113;-82
2021/07/26 08:55:50;;;;;;;7.50;4.90;;;21.90;85.10;;;;;;5028276;28;20087;-82
2021/07/26 08:58:16;;;;;;;5.93;3.60;;;21.80;85.00;;;;;;5027184;28;20080;-82
2021/07/26 09:00:42;;;;;;;6.97;3.38;;;21.90;85.20;;;;;;5028144;28;20057;-82
2021/07/26 09:03:08;;;;;;;6.07;3.67;;;22.00;85.10;;;;;;5013055;28;20053;-82
2021/07/26 09:05:34;;;;;;;5.63;3.30;;;22.00;85.10;;;;;;5027757;28;20021;-82
2021/07/26 09:08:02;;;;;;;6.95;3.40;;;22.00;85.00;;;;;;5013018;28;20473;-82
2021/07/26 09:10:33;;;;;;;10.38;3.90;;;22.10;84.90;;;;;;5016130;28;20460;-82
2021/07/26 09:12:59;;;;;;;;;;;22.10;84.80;;;;;;5016610;28;20026;-82
2021/07/26 09:15:24;;;;;;;5.53;3.47;;;22.00;84.90;;;;;;5012273;28;19902;-82
2021/07/26 09:17:51;;;;;;;6.15;3.53;;;22.00;85.00;;;;;;5011672;28;20018;-82
2021/07/26 09:20:20;;;;;;;6.20;3.60;;;22.10;85.10;;;;;;5012029;28;20025;-81
2021/07/26 09:22:46;;;;;;;7.60;3.78;;;22.20;85.00;;;;;;5027897;28;20354;-82
2021/07/26 09:25:24;;;;;;;6.60;4.00;;;22.30;84.70;;;;;;5027702;28;20025;-82
2021/07/26 09:28:04;;;;;;;6.97;3.30;;;22.50;84.40;;;;;;5027378;28;20041;-82
2021/07/26 09:30:37;;;;;;;5.22;2.70;;;22.60;83.90;;;;;;5011868;28;20026;-82
2021/07/26 09:33:13;;;;;;;4.88;2.85;;;22.70;83.70;;;;;;5012447;28;20025;-82
2021/07/26 09:35:39;;;;;;;5.85;2.95;;;22.80;83.50;;;;;;5011652;28;20018;-82
2021/07/26 09:38:04;;;;;;;5.07;2.88;;;22.80;83.20;;;;;;5012145;28;20026;-82
2021/07/26 09:40:32;;;;;;;5.90;3.65;;;22.80;83.20;;;;;;5026919;28;20061;-81
2021/07/26 09:43:21;;;;;;;6.18;3.05;;;22.90;82.80;;;;;;5012372;28;20123;-81
2021/07/26 09:45:57;;;;;;;4.60;2.88;;;23.00;82.60;;;;;;5012371;28;20017;-81
2021/07/26 09:48:26;;;;;;;8.00;3.15;;;23.10;82.00;;;;;;5011706;28;20458;-81
2021/07/26 09:50:52;;;;;;;6.22;2.33;;;23.10;81.90;;;;;;5010830;28;20022;-82
2021/07/26 09:53:23;;;;;;;5.28;2.70;;;23.20;81.60;;;;;;5026838;28;20021;-81
2021/07/26 09:55:54;;;;;;;3.22;2.17;;;23.30;81.20;;;;;;5012386;28;20076;-81
2021/07/26 09:58:21;;;;;;;;;;;23.40;80.80;;;;;;5026886;28;20081;-81
2021/07/26 10:00:47;;;;;;;5.10;2.35;;;23.30;80.40;;;;;;5012371;28;19901;-82
2021/07/26 10:03:15;;;;;;;5.93;2.80;;;23.40;80.30;;;;;;5012359;28;20029;-82
2021/07/26 10:05:42;;;;;;;4.63;2.78;;;23.30;79.80;;;;;;5011631;28;20014;-82
2021/07/26 10:08:08;;;;;;;4.40;2.30;;;23.40;79.70;;;;;;5027285;28;20030;-82
2021/07/26 10:10:39;;;;;;;4.43;2.20;;;23.60;79.00;;;;;;5011444;28;20026;-82
2021/07/26 10:13:07;;;;;;;4.20;2.53;;;23.70;78.40;;;;;;5027242;28;20608;-82
2021/07/26 10:15:33;;;;;;;4.88;2.20;;;23.70;76.70;;;;;;5026715;28;20116;-82
2021/07/26 10:17:59;;;;;;;3.92;2.42;;;23.70;76.70;;;;;;5027432;28;20182;-82
2021/07/26 10:20:31;;;;;;;3.30;2.40;;;23.70;76.90;;;;;;5011383;28;20053;-82
2021/07/26 10:22:59;;;;;;;4.00;2.13;;;23.70;77.10;;;;;;5027191;28;20445;-82
2021/07/26 10:25:47;;;;;;;3.70;2.33;;;23.70;76.90;;;;;;5012203;28;20064;-82
2021/07/26 10:28:27;;;;;;;4.63;2.55;;;23.70;77.20;;;;;;5022026;28;20392;-82
2021/07/26 10:30:53;;;;;;;4.18;2.13;;;23.80;77.20;;;;;;5027815;28;20030;-82
2021/07/26 10:33:20;;;;;;;3.60;2.30;;;23.80;76.60;;;;;;5011585;28;20449;-80
2021/07/26 10:35:50;;;;;;;5.57;2.75;;;23.80;76.20;;;;;;5011871;28;20065;-83
2021/07/26 10:38:44;;;;;;;3.13;2.30;;;23.80;76.00;;;;;;5026924;28;20014;-82
2021/07/26 10:41:10;;;;;;;3.67;2.35;;;23.90;76.00;;;;;;5013877;28;20526;-82
2021/07/26 10:44:28;;;;;;;5.05;2.45;;;23.90;76.20;;;;;;5030102;28;20101;-82
2021/07/26 10:46:55;;;;;;;4.10;2.53;;;23.80;75.70;;;;;;5019838;28;20041;-82
2021/07/26 10:49:44;;;;;;;4.57;2.80;;;23.70;75.80;;;;;;5015431;28;20443;-81
2021/07/26 10:52:21;;;;;;;5.07;2.70;;;23.60;75.80;;;;;;5015689;28;20117;-82
2021/07/26 10:54:47;;;;;;;3.10;1.92;;;23.60;76.20;;;;;;5015714;28;20024;-82
2021/07/26 10:57:14;;;;;;;3.30;1.98;;;23.50;76.30;;;;;;5014824;28;20105;-83
2021/07/26 11:00:07;;;;;;;3.25;2.10;;;23.50;75.60;;;;;;5029935;28;20014;-83
2021/07/26 11:02:34;;;;;;;3.92;2.00;;;23.50;74.60;;;;;;5014683;28;20028;-84
2021/07/26 11:05:26;;;;;;;3.28;2.17;;;23.50;74.60;;;;;;5015196;28;20098;-83
2021/07/26 11:08:18;;;;;;;3.80;2.42;;;23.50;74.40;;;;;;5015081;28;20132;-83
2021/07/26 11:10:57;;;;;;;4.68;2.30;;;23.60;74.20;;;;;;5012959;28;20513;-82
2021/07/26 11:13:42;;;;;;;3.05;2.00;;;23.60;74.20;;;;;;5029619;28;20075;-81
2021/07/26 11:16:07;;;;;;;4.35;2.47;;;23.70;74.60;;;;;;5013680;28;20022;-82
2021/07/26 11:18:40;;;;;;;3.10;2.00;;;23.70;73.90;;;;;;5029531;28;20029;-82
2021/07/26 11:21:14;;;;;;;3.47;2.20;;;23.70;73.80;;;;;;5014805;28;20025;-82
2021/07/26 11:23:51;;;;;;;5.18;2.40;;;23.70;73.80;;;;;;5029422;28;20014;-82
2021/07/26 11:26:30;;;;;;;3.55;2.30;;;23.80;73.40;;;;;;5014722;28;20018;-83
2021/07/26 11:29:01;;;;;;;2.42;1.77;;;23.90;73.10;;;;;;5013369;28;20017;-82
2021/07/26 11:31:29;;;;;;;4.55;1.88;;;24.00;72.70;;;;;;5013920;28;20022;-82
2021/07/26 11:34:12;;;;;;;3.15;1.88;;;24.10;72.70;;;;;;5014720;28;20167;-82
2021/07/26 11:37:00;;;;;;;2.92;1.45;;;24.20;72.20;;;;;;5014153;28;20018;-82
2021/07/26 11:39:26;;;;;;;3.30;1.17;;;24.40;71.20;;;;;;5014162;28;20022;-82
2021/07/26 11:41:51;;;;;;;2.28;1.40;;;24.50;69.90;;;;;;5033398;28;20052;-82
2021/07/26 11:44:27;;;;;;;2.47;1.55;;;24.80;70.00;;;;;;5027300;28;20045;-81
2021/07/26 11:46:54;;;;;;;2.92;1.40;;;24.90;68.90;;;;;;5019137;28;20025;-82
2021/07/26 11:49:19;;;;;;;3.10;1.30;;;24.90;67.10;;;;;;5030266;28;20026;-83
2021/07/26 11:51:45;;;;;;;2.38;1.52;;;25.00;67.40;;;;;;5028527;28;20017;-83
2021/07/26 11:54:11;;;;;;;2.33;1.50;;;25.10;66.40;;;;;;5029442;28;20022;-83
2021/07/26 11:56:37;;;;;;;2.92;1.40;;;25.10;65.80;;;;;;5028772;28;20025;-83
2021/07/26 11:59:15;;;;;;;2.10;1.67;;;25.20;66.20;;;;;;5013893;28;20482;-83
2021/07/26 12:01:55;;;;;;;1.75;1.08;;;25.30;66.40;;;;;;5013514;28;20029;-83
2021/07/26 12:04:24;;;;;;;2.30;1.30;;;25.40;66.80;;;;;;5029133;28;20052;-82
2021/07/26 12:06:55;;;;;;;2.50;1.33;;;25.60;65.50;;;;;;5028342;28;20025;-82
2021/07/26 12:09:21;;;;;;;;;;;25.50;64.40;;;;;;5029583;28;20025;-82
2021/07/26 12:11:47;;;;;;;1.92;1.20;;;25.50;64.80;;;;;;5028502;28;19909;-82
2021/07/26 12:14:31;;;;;;;2.88;1.42;;;25.60;65.20;;;;;;5013556;28;20101;-82
2021/07/26 12:17:24;;;;;;;3.33;1.40;;;25.80;64.70;;;;;;5013870;28;20450;-82
2021/07/26 12:20:01;;;;;;;2.05;1.38;;;25.70;64.20;;;;;;5029736;28;20077;-82
2021/07/26 12:22:37;;;;;;;2.83;1.70;;;25.70;64.00;;;;;;5028362;28;20457;-79
2021/07/26 12:25:16;;;;;;;3.00;1.27;;;25.60;64.50;;;;;;5029046;28;20024;-82
2021/07/26 12:27:42;;;;;;;3.25;1.67;;;25.60;65.20;;;;;;5013226;28;20020;-82
2021/07/26 12:30:12;;;;;;;2.03;1.52;;;25.60;66.20;;;;;;5013909;28;20029;-82
2021/07/26 12:32:51;;;;;;;2.95;1.75;;;25.70;66.30;;;;;;5013190;28;20025;-82
2021/07/26 12:35:24;;;;;;;2.03;1.60;;;25.80;65.70;;;;;;5028485;28;20405;-83
2021/07/26 12:38:19;;;;;;;3.40;1.80;;;25.80;65.10;;;;;;5012936;28;20049;-82
2021/07/26 12:41:02;;;;;;;3.45;1.35;;;26.00;65.20;;;;;;5027973;28;20401;-82
2021/07/26 12:43:28;;;;;;;2.13;1.27;;;26.00;65.30;;;;;;5012105;28;20339;-82
2021/07/26 12:46:03;;;;;;;2.95;1.80;;;25.80;65.50;;;;;;5028353;28;20026;-82
2021/07/26 12:48:30;;;;;;;3.30;1.35;;;25.80;64.80;;;;;;5027714;28;20347;-80
2021/07/26 12:50:57;;;;;;;3.50;1.67;;;25.80;65.00;;;;;;5012929;28;20458;-82
2021/07/26 12:53:27;;;;;;;3.45;1.75;;;25.80;65.40;;;;;;5028308;28;20112;-82
2021/07/26 12:55:54;;;;;;;2.40;1.63;;;25.90;65.30;;;;;;5012817;28;20017;-82